Time;durP1;ratioP1;P1;durP2;ratioP2;P2;SDS_P1;SDS_P2;PMS_P1;PMS_P2;Temp;Humidity;BMP_temperature;BMP_pressure;BME280_temperature;BME280_humidity;BME280_pressure;Samples;Min_cycle;Max_cycle;Signal;HPM_P1;HPM_P2
2023/12/21 00:00:38;;;;;;;1.53;0.80;;;13.90;99.90;;;13.77;59.56;100412.72;4873806;28;113863;-45
2023/12/21 00:03:04;;;;;;;2.30;0.90;;;13.80;99.90;;;13.55;61.28;100412.09;4842013;28;109708;-43
2023/12/21 00:05:30;;;;;;;1.80;0.50;;;13.60;99.90;;;13.54;60.99;100419.19;4849169;28;100123;-44
2023/12/21 00:07:56;;;;;;;0.50;0.50;;;13.60;99.90;;;13.66;59.56;100396.50;4867204;28;112206;-42
2023/12/21 00:10:24;;;;;;;0.83;0.43;;;13.60;99.90;;;13.56;59.78;100395.25;4880034;28;98439;-42
2023/12/21 00:12:50;;;;;;;0.50;0.50;;;13.50;99.90;;;13.48;62.18;100397.47;4867486;28;99489;-43
2023/12/21 00:15:20;;;;;;;1.00;0.60;;;13.50;99.90;;;13.47;60.74;100393.97;4893289;28;108934;-40
2023/12/21 00:17:46;;;;;;;0.73;0.40;;;13.40;99.90;;;13.53;60.18;100384.84;4852683;28;98914;-43
2023/12/21 00:20:12;;;;;;;1.50;0.60;;;13.50;99.90;;;13.42;62.26;100387.16;4844856;28;101270;-44
2023/12/21 00:22:40;;;;;;;0.90;0.67;;;13.40;99.90;;;13.43;60.72;100404.78;4835031;28;100008;-41
2023/12/21 00:25:07;;;;;;;0.60;0.40;;;13.40;99.90;;;13.61;59.46;100394.09;4861383;28;100517;-44
2023/12/21 00:27:32;;;;;;;1.97;0.50;;;13.60;99.90;;;13.72;58.91;100388.22;4888521;28;98743;-43
2023/12/21 00:29:59;;;;;;;1.20;0.50;;;13.80;99.90;;;13.74;59.23;100373.09;4859099;28;103579;-40
2023/12/21 00:32:25;;;;;;;0.90;0.60;;;13.80;99.90;;;13.81;59.11;100379.78;4822768;28;101049;-40
2023/12/21 00:34:51;;;;;;;1.13;0.37;;;13.90;99.90;;;13.83;59.86;100383.22;4874396;28;100875;-43
2023/12/21 00:37:17;;;;;;;0.53;0.40;;;14.00;99.90;;;13.70;59.65;100372.41;4865105;28;100822;-44
2023/12/21 00:39:43;;;;;;;0.77;0.50;;;13.70;99.90;;;13.69;60.75;100369.84;4845581;28;100002;-46
2023/12/21 00:42:08;;;;;;;1.43;0.50;;;13.70;99.90;;;13.77;59.99;100361.50;4869552;28;109205;-43
2023/12/21 00:44:34;;;;;;;1.00;0.50;;;13.80;99.90;;;13.77;59.23;100366.78;4850622;28;97815;-45
2023/12/21 00:47:00;;;;;;;1.03;0.53;;;13.80;99.90;;;13.82;58.71;100370.03;4843352;28;101448;-42
2023/12/21 00:49:26;;;;;;;0.30;0.30;;;13.90;99.90;;;13.75;60.61;100356.28;4837599;28;103125;-43
2023/12/21 00:51:52;;;;;;;0.63;0.53;;;13.90;99.90;;;13.91;58.27;100343.91;4816020;28;102287;-42
2023/12/21 00:54:20;;;;;;;0.40;0.40;;;13.90;99.90;;;13.87;58.91;100347.63;4875570;28;100968;-43
2023/12/21 00:56:46;;;;;;;1.07;0.50;;;14.00;99.90;;;14.06;57.73;100328.09;4880655;28;97721;-40
2023/12/21 00:59:15;;;;;;;2.97;0.63;;;14.10;99.90;;;14.05;58.85;100344.94;4874052;28;99546;-44
2023/12/21 01:01:41;;;;;;;0.60;0.30;;;14.20;99.90;;;13.83;60.43;100335.50;4884732;28;100911;-42
2023/12/21 01:04:07;;;;;;;3.20;0.60;;;13.90;99.90;;;13.82;59.92;100338.22;4836344;28;97493;-42
2023/12/21 01:06:36;;;;;;;0.90;0.47;;;13.90;99.90;;;13.84;59.43;100321.28;4863207;28;111076;-45
2023/12/21 01:09:03;;;;;;;1.30;0.53;;;13.90;99.90;;;13.70;60.98;100329.13;4846133;28;100759;-39
2023/12/21 01:11:29;;;;;;;1.07;0.67;;;13.70;99.90;;;13.76;59.73;100326.19;4836088;28;104801;-46
2023/12/21 01:13:55;;;;;;;1.17;0.80;;;13.80;99.90;;;13.83;58.84;100314.28;4852365;28;97282;-45
2023/12/21 01:16:20;;;;;;;0.50;0.40;;;13.90;99.90;;;13.79;60.65;100318.06;4874093;28;112729;-46
2023/12/21 01:18:49;;;;;;;0.70;0.60;;;13.90;99.90;;;13.75;59.02;100324.47;4874326;28;101107;-43
2023/12/21 01:21:15;;;;;;;1.57;0.50;;;13.70;99.90;;;13.62;60.15;100315.47;4824272;28;102713;-46
2023/12/21 01:23:41;;;;;;;2.87;0.83;;;13.60;99.90;;;13.75;60.70;100311.22;4833650;28;103205;-44
2023/12/21 01:26:09;;;;;;;0.60;0.50;;;13.80;99.90;;;13.77;59.58;100314.63;4835640;28;98438;-41
2023/12/21 01:28:35;;;;;;;1.63;0.67;;;13.80;99.90;;;13.71;61.07;100309.63;4883135;28;103523;-44
2023/12/21 01:31:01;;;;;;;0.77;0.70;;;13.80;99.90;;;13.85;60.30;100309.75;4859310;28;121585;-41
2023/12/21 01:33:26;;;;;;;1.37;0.60;;;14.00;99.90;;;13.95;58.38;100303.00;4871414;28;100762;-43
2023/12/21 01:35:52;;;;;;;2.10;0.57;;;14.00;99.90;;;13.88;60.04;100288.38;4808990;28;100772;-41
2023/12/21 01:38:18;;;;;;;1.43;0.67;;;14.00;99.90;;;13.89;59.88;100287.47;4851051;28;123807;-42
2023/12/21 01:40:44;;;;;;;2.90;0.90;;;14.10;99.90;;;14.05;58.06;100286.59;4874513;28;110737;-42
2023/12/21 01:43:10;;;;;;;1.70;0.80;;;14.20;99.90;;;14.02;58.37;100281.44;4849360;28;108924;-39
2023/12/21 01:45:36;;;;;;;0.83;0.70;;;14.20;99.90;;;14.07;57.97;100263.50;4868770;28;100914;-48
2023/12/21 01:48:02;;;;;;;1.20;0.83;;;14.20;99.90;;;14.15;57.69;100250.66;4886217;28;114810;-43
2023/12/21 01:50:28;;;;;;;0.77;0.77;;;14.30;99.90;;;14.17;58.03;100248.75;4871658;28;99018;-41
2023/12/21 01:52:59;;;;;;;0.83;0.83;;;14.30;99.90;;;14.10;59.87;100253.56;4858017;28;104803;-42
2023/12/21 01:55:29;;;;;;;1.37;0.70;;;14.20;99.90;;;13.98;59.92;100239.19;4872403;28;102161;-44
2023/12/21 01:57:54;;;;;;;3.33;1.00;;;14.10;99.90;;;14.07;57.73;100248.44;4865401;28;98110;-45
2023/12/21 02:00:21;;;;;;;2.73;0.90;;;14.00;99.90;;;14.07;58.13;100252.91;4868357;28;115427;-41
2023/12/21 02:02:46;;;;;;;2.70;0.70;;;14.10;99.90;;;14.12;58.29;100243.72;4884972;28;99531;-39
2023/12/21 02:05:12;;;;;;;2.90;1.00;;;14.20;99.90;;;14.05;58.41;100230.91;4852734;28;109040;-41
2023/12/21 02:07:41;;;;;;;3.83;0.90;;;14.10;99.90;;;14.04;59.65;100221.25;4834676;28;98065;-42
2023/12/21 02:10:07;;;;;;;1.23;0.67;;;14.10;99.90;;;14.10;58.37;100226.19;4829618;28;101904;-41
2023/12/21 02:12:35;;;;;;;0.70;0.60;;;14.20;99.90;;;14.10;58.54;100219.09;4883933;28;100573;-45
2023/12/21 02:15:01;;;;;;;1.80;0.53;;;14.20;99.90;;;14.04;59.01;100222.09;4891617;28;99555;-43
2023/12/21 02:17:29;;;;;;;1.83;0.70;;;14.10;99.90;;;13.63;62.75;100221.75;4830112;28;100055;-41
2023/12/21 02:19:55;;;;;;;3.93;0.80;;;13.70;99.90;;;13.88;59.76;100224.75;4851244;28;122395;-45
2023/12/21 02:22:24;;;;;;;1.80;0.60;;;13.90;99.90;;;13.85;60.01;100206.34;4841718;28;97890;-40
2023/12/21 02:24:50;;;;;;;0.97;0.30;;;13.90;99.90;;;13.86;59.71;100208.06;4877247;28;97603;-42
2023/12/21 02:27:19;;;;;;;0.90;0.57;;;13.80;99.90;;;14.00;58.86;100210.78;4869136;28;115330;-44
2023/12/21 02:29:45;;;;;;;0.70;0.40;;;14.00;99.90;;;13.96;60.15;100208.41;4863104;28;103164;-41
2023/12/21 02:32:13;;;;;;;0.53;0.40;;;14.00;99.90;;;13.95;59.68;100212.88;4898306;28;99013;-43
2023/12/21 02:34:39;;;;;;;0.40;0.40;;;14.00;99.90;;;13.96;59.88;100209.25;4851167;28;97353;-46
2023/12/21 02:37:05;;;;;;;1.13;0.60;;;14.00;99.90;;;13.93;58.81;100201.50;4865026;28;122161;-42
2023/12/21 02:39:37;;;;;;;1.70;0.70;;;13.90;99.90;;;13.84;60.56;100212.59;4874519;28;119770;-40
2023/12/21 02:42:03;;;;;;;0.67;0.50;;;13.90;99.90;;;13.83;60.58;100200.28;4869580;28;97567;-43
2023/12/21 02:44:29;;;;;;;3.20;1.10;;;13.90;99.90;;;13.75;60.80;100205.19;4933351;28;97133;-49
2023/12/21 02:46:57;;;;;;;0.60;0.50;;;13.80;99.90;;;13.77;60.20;100203.31;4915332;28;118763;-48
2023/12/21 02:49:23;;;;;;;0.50;0.47;;;13.80;99.90;;;13.88;60.02;100190.28;4910539;28;98474;-43
2023/12/21 02:51:49;;;;;;;1.03;0.73;;;13.90;99.90;;;13.83;60.27;100187.03;4942540;28;105127;-42
2023/12/21 02:54:14;;;;;;;0.87;0.40;;;13.80;99.90;;;14.00;58.10;100178.13;4913569;28;102030;-40
2023/12/21 02:56:41;;;;;;;0.93;0.50;;;14.00;99.90;;;13.92;60.61;100177.72;4922184;28;120547;-45
2023/12/21 02:59:06;;;;;;;0.40;0.40;;;14.00;99.90;;;14.01;59.72;100179.81;4927385;28;98326;-43
2023/12/21 03:01:32;;;;;;;0.60;0.60;;;14.10;99.90;;;13.97;60.14;100171.19;4921543;28;97305;-42
2023/12/21 03:04:00;;;;;;;0.50;0.40;;;14.10;99.90;;;13.97;59.14;100167.69;4926342;28;97447;-45
2023/12/21 03:06:26;;;;;;;0.93;0.80;;;14.10;99.90;;;13.73;62.33;100158.47;4918540;28;98564;-42
2023/12/21 03:08:53;;;;;;;2.20;0.50;;;13.80;99.90;;;13.63;63.23;100152.88;4931035;28;114901;-42
2023/12/21 03:11:19;;;;;;;3.83;0.73;;;13.70;99.90;;;13.77;59.85;100144.97;4927196;28;108882;-43
2023/12/21 03:13:44;;;;;;;1.57;0.80;;;13.70;99.90;;;13.76;61.63;100135.31;4925372;28;116318;-41
2023/12/21 03:16:10;;;;;;;1.80;0.57;;;13.80;99.90;;;13.89;58.81;100139.00;4944002;28;118586;-42
2023/12/21 03:18:36;;;;;;;2.10;0.80;;;13.90;99.90;;;14.05;58.30;100122.19;4928504;28;98321;-41
2023/12/21 03:21:02;;;;;;;3.17;1.07;;;14.10;99.90;;;14.06;58.73;100138.00;4934566;28;97399;-43
2023/12/21 03:23:28;;;;;;;2.20;1.10;;;14.10;99.90;;;14.13;59.03;100135.84;4925458;28;97162;-42
2023/12/21 03:25:54;;;;;;;3.03;0.67;;;14.20;99.90;;;14.21;57.82;100128.31;4925436;28;102505;-42
2023/12/21 03:28:20;;;;;;;0.70;0.60;;;14.30;99.90;;;14.20;59.90;100121.28;4931524;28;107070;-44
2023/12/21 03:30:46;;;;;;;1.53;0.60;;;14.30;99.90;;;14.19;58.15;100115.13;4928292;28;101047;-43
2023/12/21 03:33:11;;;;;;;1.20;0.80;;;14.30;99.90;;;14.20;58.75;100108.03;4927543;28;97464;-46
2023/12/21 03:35:37;;;;;;;2.77;0.90;;;14.40;99.90;;;14.19;58.77;100106.31;4923424;28;98375;-44
2023/12/21 03:38:03;;;;;;;1.20;1.00;;;14.30;99.90;;;14.04;59.74;100089.50;4905822;28;97946;-44
2023/12/21 03:40:29;;;;;;;1.90;0.93;;;14.20;99.90;;;14.12;58.67;100081.09;4913948;28;102377;-43
2023/12/21 03:42:55;;;;;;;0.67;0.63;;;14.20;99.90;;;13.98;59.21;100074.81;4930639;28;112041;-39
2023/12/21 03:45:21;;;;;;;1.70;1.13;;;14.00;99.90;;;13.93;59.61;100071.59;4923879;28;99908;-39
2023/12/21 03:47:48;;;;;;;0.90;0.70;;;13.90;99.90;;;13.85;61.00;100054.41;4929739;28;97619;-47
2023/12/21 03:50:14;;;;;;;0.80;0.67;;;13.90;99.90;;;13.65;62.81;100047.63;4928443;28;99355;-39
2023/12/21 03:52:41;;;;;;;1.27;0.70;;;13.70;99.90;;;13.51;63.11;100034.31;4922786;28;97550;-40
2023/12/21 03:55:07;;;;;;;1.53;0.57;;;13.50;99.90;;;13.62;62.26;100023.97;4921052;28;98469;-44
2023/12/21 03:57:33;;;;;;;0.70;0.70;;;13.60;99.90;;;13.70;60.32;100032.28;4923708;28;100038;-44
2023/12/21 04:00:00;;;;;;;2.53;1.00;;;13.60;99.90;;;13.58;62.89;100030.34;4920927;28;97940;-39
2023/12/21 04:02:26;;;;;;;2.40;0.70;;;13.50;99.90;;;13.49;62.57;100026.47;4924998;28;97258;-44
2023/12/21 04:04:52;;;;;;;0.87;0.70;;;13.40;99.90;;;13.45;63.95;100037.28;4923525;28;97871;-40
2023/12/21 04:07:18;;;;;;;0.87;0.70;;;13.40;99.90;;;13.65;61.78;100035.22;4914891;28;123030;-43
2023/12/21 04:09:44;;;;;;;2.40;0.73;;;13.60;99.90;;;13.56;63.33;100030.44;4927782;28;99434;-43
2023/12/21 04:12:09;;;;;;;2.13;0.40;;;13.60;99.90;;;13.72;59.95;100019.81;4921490;28;97833;-41
2023/12/21 04:14:35;;;;;;;1.07;0.60;;;13.70;99.90;;;13.69;61.45;100009.38;4924455;28;119628;-40
2023/12/21 04:17:01;;;;;;;1.37;0.57;;;13.70;99.90;;;13.89;59.47;100003.78;4934070;28;122854;-39
2023/12/21 04:19:27;;;;;;;1.07;0.60;;;13.90;99.90;;;13.72;61.45;100003.06;4912809;28;105154;-44
2023/12/21 04:21:58;;;;;;;1.63;0.50;;;13.70;99.90;;;13.77;62.28;99999.19;4916984;28;97524;-44
2023/12/21 04:24:24;;;;;;;2.80;0.90;;;13.80;99.90;;;13.72;62.83;99998.59;4925418;28;105640;-41
2023/12/21 04:26:51;;;;;;;0.50;0.50;;;13.70;99.90;;;13.55;63.55;99993.44;4919648;28;113079;-43
2023/12/21 04:29:20;;;;;;;1.03;0.70;;;13.50;99.90;;;13.48;62.22;99979.72;4932154;28;105093;-40
2023/12/21 04:31:45;;;;;;;1.23;0.67;;;13.40;99.90;;;13.37;63.91;99982.97;4910271;28;97665;-41
2023/12/21 04:34:11;;;;;;;1.37;0.93;;;13.20;99.90;;;13.33;64.96;99981.44;4930980;28;101647;-47
2023/12/21 04:36:37;;;;;;;2.33;0.50;;;13.30;99.90;;;13.40;62.55;99980.16;4928861;28;99439;-42
2023/12/21 04:39:06;;;;;;;0.50;0.30;;;13.30;99.90;;;13.48;62.71;99966.47;4926952;28;100363;-43
2023/12/21 04:41:32;;;;;;;0.93;0.50;;;13.40;99.90;;;13.37;64.15;99972.38;4902505;28;97424;-41
2023/12/21 04:43:57;;;;;;;0.63;0.40;;;13.40;99.90;;;13.26;65.52;99964.19;4912287;28;119207;-39
2023/12/21 04:46:29;;;;;;;1.53;0.60;;;13.30;99.90;;;13.23;63.08;99953.78;4922453;28;119158;-44
2023/12/21 04:48:58;;;;;;;0.40;0.40;;;13.20;99.90;;;13.20;65.88;99963.72;4925082;28;97654;-43
2023/12/21 04:51:24;;;;;;;0.87;0.50;;;13.20;99.90;;;13.14;66.02;99964.84;4919395;28;99669;-43
2023/12/21 04:53:50;;;;;;;1.07;0.60;;;13.10;99.90;;;13.29;63.86;99945.47;4929328;28;103341;-44
2023/12/21 04:56:15;;;;;;;1.27;0.40;;;13.20;99.90;;;13.48;61.47;99941.78;4924968;28;105108;-39
2023/12/21 04:58:44;;;;;;;1.60;0.60;;;13.40;99.90;;;13.39;62.41;99941.34;4918506;28;100631;-39
2023/12/21 05:01:10;;;;;;;3.40;0.60;;;13.40;99.90;;;13.56;61.55;99935.06;4921365;28;102263;-44
2023/12/21 05:03:36;;;;;;;0.80;0.50;;;13.60;99.90;;;13.69;61.30;99932.53;4919816;28;114527;-42
2023/12/21 05:06:02;;;;;;;0.83;0.47;;;13.70;99.90;;;13.61;61.74;99932.16;4925333;28;99709;-43
2023/12/21 05:08:29;;;;;;;0.60;0.47;;;13.60;99.90;;;13.57;62.97;99926.16;4921727;28;106936;-45
2023/12/21 05:10:55;;;;;;;0.67;0.60;;;13.60;99.90;;;13.40;63.95;99913.91;4924976;28;97750;-42
2023/12/21 05:13:21;;;;;;;2.00;0.70;;;13.40;99.90;;;13.30;65.82;99912.75;4925976;28;100656;-44
2023/12/21 05:15:47;;;;;;;0.97;0.37;;;13.40;99.90;;;13.40;63.19;99898.03;4921686;28;110170;-40
2023/12/21 05:18:12;;;;;;;1.20;0.60;;;13.30;99.90;;;13.29;65.65;99903.09;4921505;28;97125;-43
2023/12/21 05:20:38;;;;;;;2.63;0.30;;;13.30;99.90;;;13.35;64.08;99899.25;4928009;28;97425;-41
2023/12/21 05:23:04;;;;;;;1.77;0.37;;;13.30;99.90;;;13.62;60.92;99886.16;4900335;28;99612;-40
2023/12/21 05:25:30;;;;;;;0.93;0.50;;;13.60;99.90;;;13.63;62.71;99880.75;4922590;28;101003;-43
2023/12/21 05:27:58;;;;;;;3.57;0.47;;;13.70;99.90;;;13.57;63.40;99877.63;4905853;28;97970;-42
2023/12/21 05:30:24;;;;;;;1.73;0.70;;;13.60;99.90;;;13.53;62.73;99876.09;4917544;28;101027;-41
2023/12/21 05:32:50;;;;;;;1.17;0.70;;;13.50;99.90;;;13.62;61.75;99870.25;4899973;28;103068;-42
2023/12/21 05:35:19;;;;;;;0.77;0.37;;;13.60;99.90;;;13.54;62.60;99867.22;4934518;28;103307;-43
2023/12/21 05:37:45;;;;;;;0.70;0.50;;;13.60;99.90;;;13.47;63.52;99866.75;4912862;28;102689;-40
2023/12/21 05:40:12;;;;;;;1.80;0.60;;;13.50;99.90;;;13.51;63.31;99862.09;4909367;28;97404;-39
2023/12/21 05:42:38;;;;;;;1.03;0.40;;;13.50;99.90;;;13.63;62.83;99842.81;4897087;28;97969;-41
2023/12/21 05:45:07;;;;;;;0.97;0.37;;;13.60;99.90;;;13.64;62.86;99836.56;4923320;28;97370;-43
2023/12/21 05:47:32;;;;;;;1.67;1.10;;;13.70;99.90;;;13.66;62.48;99846.13;4896250;28;97422;-42
2023/12/21 05:49:58;;;;;;;1.17;0.30;;;13.70;99.90;;;13.70;62.80;99838.84;4908863;28;100721;-42
2023/12/21 05:52:24;;;;;;;0.73;0.50;;;13.80;99.90;;;13.74;63.38;99832.38;4920936;28;99420;-40
2023/12/21 05:54:50;;;;;;;0.97;0.60;;;13.80;99.90;;;13.48;64.40;99841.94;4929077;28;99351;-45
2023/12/21 05:57:18;;;;;;;1.80;0.47;;;13.50;99.90;;;13.53;64.18;99839.00;4924132;28;97720;-38
2023/12/21 05:59:44;;;;;;;0.50;0.50;;;13.50;99.90;;;13.49;64.39;99818.97;4939068;28;97122;-43
2023/12/21 06:02:10;;;;;;;0.67;0.40;;;13.50;99.90;;;13.57;61.72;99819.31;4923466;28;108591;-42
2023/12/21 06:04:36;;;;;;;2.57;0.60;;;13.50;99.90;;;13.56;63.47;99818.47;4927821;28;98843;-39
2023/12/21 06:07:01;;;;;;;1.03;0.70;;;13.60;99.90;;;13.70;62.12;99809.69;4912955;28;97236;-39
2023/12/21 06:09:27;;;;;;;2.27;0.80;;;13.70;99.90;;;13.80;60.89;99815.28;4919505;28;97572;-40
2023/12/21 06:11:54;;;;;;;0.77;0.53;;;13.80;99.90;;;13.91;60.58;99824.25;4906051;28;99821;-43
2023/12/21 06:14:20;;;;;;;1.90;0.60;;;14.00;99.90;;;13.78;63.09;99823.31;4936170;28;106049;-44
2023/12/21 06:16:46;;;;;;;2.00;0.57;;;13.90;99.90;;;13.78;62.56;99806.56;4931155;28;97156;-42
2023/12/21 06:19:14;;;;;;;2.93;1.00;;;13.90;99.90;;;13.69;63.09;99813.28;4937502;28;99996;-42
2023/12/21 06:21:40;;;;;;;1.70;0.87;;;13.80;99.90;;;13.67;63.82;99801.94;4920233;28;99776;-42
2023/12/21 06:24:07;;;;;;;3.83;0.77;;;13.70;99.90;;;13.68;61.69;99801.81;4951936;28;99161;-43
2023/12/21 06:26:41;;;;;;;4.07;0.90;;;13.70;99.90;;;13.64;63.23;99802.13;4923821;28;100406;-41
2023/12/21 06:29:07;;;;;;;2.40;0.80;;;13.70;99.90;;;13.75;61.93;99807.63;4908030;28;97471;-45
2023/12/21 06:31:33;;;;;;;3.90;0.80;;;13.90;99.90;;;13.89;60.51;99810.25;4942667;28;98472;-42
2023/12/21 06:33:59;;;;;;;2.13;0.77;;;14.00;99.90;;;13.87;61.90;99806.81;4901268;28;97898;-42
2023/12/21 06:36:25;;;;;;;2.47;1.13;;;14.00;99.90;;;13.87;62.29;99801.53;4907749;28;97532;-40
2023/12/21 06:38:52;;;;;;;1.10;0.53;;;14.10;99.90;;;13.75;63.34;99810.28;4937565;28;97598;-44
2023/12/21 06:41:22;;;;;;;1.87;0.67;;;13.90;99.90;;;13.79;61.82;99808.28;4927085;28;97966;-41
2023/12/21 06:43:48;;;;;;;1.47;0.67;;;13.90;99.90;;;13.82;62.14;99802.78;4910242;28;102119;-41
2023/12/21 06:46:14;;;;;;;4.90;0.97;;;13.90;99.90;;;13.77;63.17;99789.81;4936865;28;97504;-41
2023/12/21 06:48:42;;;;;;;3.03;0.70;;;14.00;99.90;;;13.94;60.92;99789.59;4905782;28;98778;-41
2023/12/21 06:51:08;;;;;;;2.17;0.90;;;14.10;99.90;;;13.95;60.78;99786.00;4931028;28;97496;-39
2023/12/21 06:53:34;;;;;;;0.93;0.47;;;14.20;99.90;;;13.96;61.46;99777.09;4920914;28;97527;-40
2023/12/21 06:56:03;;;;;;;2.00;0.70;;;14.10;99.90;;;13.89;62.94;99773.16;4921965;28;110316;-43
2023/12/21 06:58:29;;;;;;;2.00;0.83;;;14.00;99.90;;;13.85;62.12;99762.81;4922320;28;97527;-41
2023/12/21 07:00:55;;;;;;;2.40;0.80;;;14.00;99.90;;;13.80;62.52;99757.81;4922357;28;109406;-46
2023/12/21 07:03:22;;;;;;;2.43;0.80;;;14.00;99.90;;;13.72;62.92;99738.88;4918551;28;98786;-45
2023/12/21 07:05:50;;;;;;;0.70;0.60;;;13.80;99.90;;;13.70;63.87;99746.09;4931668;28;97518;-43
2023/12/21 07:08:17;;;;;;;1.00;0.73;;;13.90;99.90;;;13.82;62.76;99761.22;4909591;28;98874;-40
2023/12/21 07:10:43;;;;;;;2.67;0.60;;;14.00;99.90;;;13.80;61.89;99760.47;4926403;28;97941;-41
2023/12/21 07:13:10;;;;;;;3.50;0.80;;;14.00;99.90;;;13.86;61.24;99768.00;4931889;28;98112;-44
2023/12/21 07:15:36;;;;;;;1.83;0.70;;;14.00;99.90;;;13.76;64.10;99771.38;4905913;28;97671;-43
2023/12/21 07:18:05;;;;;;;5.20;1.37;;;13.90;99.90;;;13.65;63.69;99770.22;4918370;28;100380;-42
2023/12/21 07:20:31;;;;;;;2.00;0.63;;;13.80;99.90;;;13.57;63.34;99745.13;4892009;28;110576;-41
2023/12/21 07:22:57;;;;;;;3.00;0.80;;;13.70;99.90;;;13.72;62.36;99748.63;4916809;28;99392;-44
2023/12/21 07:25:23;;;;;;;2.90;0.90;;;13.80;99.90;;;13.72;62.75;99743.34;4912849;28;97219;-38
2023/12/21 07:27:49;;;;;;;3.43;0.90;;;13.80;99.90;;;13.65;64.62;99750.81;4903416;28;115480;-40
2023/12/21 07:30:18;;;;;;;2.63;0.80;;;13.80;99.90;;;13.74;63.07;99731.69;4943423;28;99482;-38
2023/12/21 07:32:44;;;;;;;1.53;0.80;;;13.90;99.90;;;13.86;62.72;99735.34;4896726;28;97925;-40
2023/12/21 07:35:10;;;;;;;1.10;0.80;;;14.00;99.90;;;13.94;61.59;99728.63;4924116;28;99965;-43
2023/12/21 07:37:36;;;;;;;3.07;0.80;;;14.10;99.90;;;13.81;62.35;99710.94;4926088;28;105786;-42
2023/12/21 07:40:03;;;;;;;6.57;1.07;;;13.90;99.90;;;13.72;64.57;99707.06;4925628;28;98090;-43
2023/12/21 07:42:31;;;;;;;0.97;0.70;;;13.80;99.90;;;13.62;65.06;99698.88;4896941;28;99006;-40
2023/12/21 07:44:56;;;;;;;1.97;1.13;;;13.70;99.90;;;13.62;64.94;99664.44;4872016;28;97604;-42
2023/12/21 07:47:23;;;;;;;1.57;0.80;;;13.70;99.90;;;13.70;63.46;99666.56;4881830;28;100223;-42
2023/12/21 07:49:48;;;;;;;2.00;0.70;;;13.70;99.90;;;13.75;63.07;99669.81;4829051;28;100226;-44
2023/12/21 07:52:14;;;;;;;3.80;1.00;;;13.80;99.90;;;13.68;63.09;99655.22;4837622;28;123311;-43
2023/12/21 07:54:40;;;;;;;2.47;1.00;;;13.70;99.90;;;13.62;64.97;99637.09;4875797;28;97746;-41
2023/12/21 07:57:06;;;;;;;2.87;0.83;;;13.70;99.90;;;13.71;62.76;99628.53;4882555;28;100449;-47
2023/12/21 07:59:32;;;;;;;2.93;0.90;;;13.80;99.90;;;13.64;64.18;99640.50;4848985;28;99619;-39
2023/12/21 08:01:58;;;;;;;3.07;0.87;;;13.70;99.90;;;13.48;65.97;99627.38;4830026;28;97555;-41
2023/12/21 08:04:27;;;;;;;1.17;1.07;;;13.60;99.90;;;13.54;64.97;99603.13;4854469;28;102399;-41
2023/12/21 08:06:52;;;;;;;1.70;1.20;;;13.60;99.90;;;13.44;65.82;99607.31;4854620;28;105111;-40
2023/12/21 08:09:21;;;;;;;3.60;0.70;;;13.60;99.90;;;13.48;64.07;99603.53;4875938;28;97784;-41
2023/12/21 08:11:47;;;;;;;4.67;1.17;;;13.50;99.90;;;13.53;64.43;99601.44;4878402;28;103482;-41
2023/12/21 08:14:13;;;;;;;1.57;0.67;;;13.60;99.90;;;13.67;63.07;99597.88;4852497;28;98449;-41
2023/12/21 08:16:41;;;;;;;1.90;0.70;;;13.80;99.90;;;13.62;63.49;99606.16;4839749;28;100204;-42
2023/12/21 08:19:07;;;;;;;2.30;0.80;;;13.70;99.90;;;13.77;61.93;99583.09;4877243;28;99758;-44
2023/12/21 08:21:34;;;;;;;2.37;0.70;;;13.90;99.90;;;13.86;61.60;99598.38;4853181;28;124012;-40
2023/12/21 08:24:01;;;;;;;2.40;0.90;;;14.00;99.90;;;13.88;62.45;99596.47;4849896;28;100437;-45
2023/12/21 08:26:27;;;;;;;3.93;0.90;;;14.10;99.90;;;13.83;63.44;99577.38;4799944;28;98261;-45
2023/12/21 08:28:53;;;;;;;3.17;1.10;;;14.00;99.90;;;13.84;61.65;99563.16;4842797;28;126706;-43
2023/12/21 08:31:27;;;;;;;4.50;0.60;;;13.90;99.90;;;13.80;62.74;99547.59;4861811;28;115061;-44
2023/12/21 08:33:53;;;;;;;5.23;0.70;;;13.90;99.90;;;13.79;62.86;99557.34;4840033;28;98749;-44
2023/12/21 08:36:19;;;;;;;5.60;0.73;;;13.90;99.90;;;13.75;62.18;99553.19;4839304;28;98020;-42
2023/12/21 08:38:45;;;;;;;3.37;1.00;;;13.80;99.90;;;13.79;62.98;99549.38;4808773;28;100605;-41
2023/12/21 08:41:11;;;;;;;2.00;0.87;;;14.00;99.90;;;13.91;62.29;99545.94;4836499;28;102472;-42
2023/12/21 08:43:37;;;;;;;3.57;1.10;;;14.00;99.90;;;13.98;62.24;99533.94;4853588;28;102492;-45
2023/12/21 08:46:03;;;;;;;2.43;0.67;;;14.10;99.90;;;13.98;62.34;99533.94;4882899;28;109634;-44
2023/12/21 08:48:29;;;;;;;3.20;0.70;;;14.10;99.90;;;13.90;63.53;99538.94;4875068;28;98259;-41
2023/12/21 08:50:55;;;;;;;5.77;1.10;;;14.10;99.90;;;13.92;61.65;99534.38;4870445;28;98957;-44
2023/12/21 08:53:23;;;;;;;1.63;0.70;;;14.00;99.90;;;13.94;62.88;99537.75;4854792;28;98163;-41
2023/12/21 08:55:49;;;;;;;6.47;0.70;;;14.10;99.90;;;13.97;62.94;99537.53;4884274;28;101874;-44
2023/12/21 08:58:15;;;;;;;0.83;0.53;;;14.20;99.90;;;13.95;63.77;99525.34;4869284;28;100573;-42
2023/12/21 09:00:41;;;;;;;3.97;1.13;;;14.20;99.90;;;13.93;63.29;99525.47;4825377;28;104877;-47
2023/12/21 09:03:06;;;;;;;0.80;0.50;;;14.20;99.90;;;14.00;62.80;99537.34;4850250;28;100462;-42
2023/12/21 09:05:32;;;;;;;3.53;0.83;;;14.30;99.90;;;13.96;63.90;99514.63;4860278;28;97332;-46
2023/12/21 09:07:58;;;;;;;1.97;1.00;;;14.20;99.90;;;13.88;63.45;99511.66;4840577;28;102239;-43
2023/12/21 09:10:24;;;;;;;3.40;1.00;;;14.10;99.90;;;13.84;64.89;99499.56;4884170;28;106243;-43
2023/12/21 09:12:51;;;;;;;3.83;0.77;;;14.00;99.90;;;13.90;61.92;99491.22;4877846;28;98712;-44
2023/12/21 09:15:17;;;;;;;1.63;0.60;;;14.10;99.90;;;13.94;62.39;99500.66;4861845;28;99568;-44
2023/12/21 09:17:46;;;;;;;3.17;0.83;;;14.10;99.90;;;13.67;66.65;99491.91;4882800;28;100199;-41
2023/12/21 09:20:13;;;;;;;0.47;0.37;;;13.90;99.90;;;13.23;66.70;99482.44;4854372;28;101786;-36
2023/12/21 09:22:39;;;;;;;1.97;0.97;;;13.50;99.90;;;12.41;72.09;99463.81;4812529;28;98992;-37
2023/12/21 09:25:06;;;;;;;1.23;0.77;;;12.80;99.90;;;12.67;70.77;99486.84;4825986;28;98565;-36
2023/12/21 09:27:32;;;;;;;2.33;0.40;;;12.80;99.90;;;12.67;69.20;99468.34;4860801;28;100518;-38
2023/12/21 09:30:01;;;;;;;2.73;1.17;;;12.90;99.90;;;12.38;72.23;99466.66;4855520;28;98104;-37
2023/12/21 09:32:28;;;;;;;0.77;0.57;;;12.60;99.90;;;11.98;75.58;99474.38;4873808;28;98579;-38
2023/12/21 09:34:53;;;;;;;2.23;0.77;;;12.20;99.90;;;12.19;74.31;99470.44;4875646;28;98307;-37
2023/12/21 09:37:19;;;;;;;0.60;0.40;;;12.40;99.90;;;12.29;72.19;99461.94;4882327;28;121712;-37
2023/12/21 09:39:45;;;;;;;0.80;0.60;;;12.50;99.90;;;12.00;76.07;99456.63;4849948;28;101683;-35
2023/12/21 09:42:14;;;;;;;0.40;0.40;;;12.30;99.90;;;12.49;71.14;99443.06;4868261;28;105272;-39
2023/12/21 09:44:42;;;;;;;1.00;0.47;;;12.80;99.90;;;12.21;74.21;99438.63;4871635;28;100672;-36
2023/12/21 09:47:11;;;;;;;4.17;0.67;;;12.60;99.90;;;12.32;73.27;99435.31;4858996;28;98614;-38
2023/12/21 09:49:41;;;;;;;0.70;0.40;;;12.60;99.90;;;12.00;75.17;99440.75;4854663;28;101677;-37
2023/12/21 09:52:08;;;;;;;1.70;0.43;;;12.30;99.90;;;12.02;76.35;99438.06;4831234;28;102438;-36
2023/12/21 09:54:40;;;;;;;1.23;0.20;;;12.30;99.90;;;12.33;73.41;99421.16;4851249;28;101022;-40
2023/12/21 09:57:06;;;;;;;0.17;0.17;;;12.70;99.90;;;12.24;74.02;99414.63;4860034;28;99370;-42
2023/12/21 09:59:35;;;;;;;0.50;0.37;;;12.60;99.90;;;12.35;72.54;99420.13;4858958;28;99079;-40
2023/12/21 10:02:08;;;;;;;0.53;0.20;;;12.60;99.90;;;12.24;75.06;99416.44;4853136;28;103758;-42
2023/12/21 10:04:34;;;;;;;0.77;0.27;;;12.60;99.90;;;12.76;70.81;99414.00;4833871;28;100122;-41
2023/12/21 10:07:00;;;;;;;0.83;0.37;;;13.00;99.90;;;13.04;69.24;99419.22;4865334;28;118872;-41
2023/12/21 10:09:26;;;;;;;0.53;0.20;;;13.30;99.90;;;13.23;68.53;99416.22;4877166;28;105044;-40